Time;durP1;ratioP1;P1;durP2;ratioP2;P2;SDS_P1;SDS_P2;PMS_P1;PMS_P2;Temp;Humidity;BMP_temperature;BMP_pressure;BME280_temperature;BME280_humidity;BME280_pressure;Samples;Min_cycle;Max_cycle;Signal;HPM_P1;HPM_P2
2022/09/10 00:00:30;;;;;;;1999.90;999.90;;;;;;;;;;5068220;28;20439;-74
2022/09/10 00:02:57;;;;;;;1999.90;999.90;;;;;;;;;;5065682;28;20386;-74
2022/09/10 00:05:26;;;;;;;1999.90;999.90;;;;;;;;;;5071077;28;20514;-74
2022/09/10 00:07:57;;;;;;;1999.90;999.90;;;;;;;;;;5068805;27;21698;-74
2022/09/10 00:10:25;;;;;;;1999.90;999.90;;;;;;;;;;5067190;28;20401;-74
2022/09/10 00:12:54;;;;;;;1999.90;999.90;;;;;;;;;;5068968;28;20398;-73
2022/09/10 00:15:22;;;;;;;1999.90;999.90;;;;;;;;;;5064290;28;20406;-73
2022/09/10 00:17:50;;;;;;;1999.90;999.90;;;;;;;;;;5069482;28;20412;-72
2022/09/10 00:20:17;;;;;;;1999.90;999.90;;;;;;;;;;5068957;28;20466;-73
2022/09/10 00:22:47;;;;;;;1999.90;999.90;;;;;;;;;;5081221;28;20944;-76
2022/09/10 00:25:16;;;;;;;1999.90;999.90;;;;;;;;;;5069627;28;20452;-73
2022/09/10 00:27:44;;;;;;;1999.90;999.90;;;;;;;;;;5071071;28;20448;-72
2022/09/10 00:30:12;;;;;;;1999.90;999.90;;;;;;;;;;5075625;28;20412;-73
2022/09/10 00:32:40;;;;;;;1999.90;999.90;;;;;;;;;;5071238;28;20401;-73
2022/09/10 00:35:08;;;;;;;1999.90;999.90;;;;;;;;;;5056950;28;20540;-73
2022/09/10 00:37:36;;;;;;;1999.90;999.90;;;;;;;;;;5079433;28;20400;-73
2022/09/10 00:40:04;;;;;;;1999.90;999.90;;;;;;;;;;5064628;28;21165;-73
2022/09/10 00:42:33;;;;;;;1999.90;999.90;;;;;;;;;;5070098;28;21218;-74
2022/09/10 00:45:02;;;;;;;1999.90;999.90;;;;;;;;;;5085752;27;20438;-74
2022/09/10 00:47:32;;;;;;;1999.90;999.90;;;;;;;;;;5067193;28;20406;-73
2022/09/10 00:50:03;;;;;;;1999.90;999.90;;;;;;;;;;5071777;28;20887;-73
2022/09/10 00:52:31;;;;;;;1999.90;999.90;;;;;;;;;;5089208;27;20403;-74
2022/09/10 00:55:04;;;;;;;1999.90;999.90;;;;;;;;;;5079684;28;20478;-73
2022/09/10 00:57:33;;;;;;;1999.90;999.90;;;;;;;;;;5067849;28;20903;-73
2022/09/10 01:00:04;;;;;;;1999.90;999.90;;;;;;;;;;5076514;28;20412;-73
2022/09/10 01:02:31;;;;;;;1999.90;999.90;;;;;;;;;;5068461;28;20451;-73
2022/09/10 01:05:00;;;;;;;1999.90;999.90;;;;;;;;;;5084769;27;20500;-76
2022/09/10 01:07:29;;;;;;;1999.90;999.90;;;;;;;;;;5069874;28;21213;-73
2022/09/10 01:09:57;;;;;;;1999.90;999.90;;;;;;;;;;5068239;28;20480;-73
2022/09/10 01:12:31;;;;;;;1999.90;999.90;;;;;;;;;;5061013;28;20415;-73
2022/09/10 01:15:08;;;;;;;1999.90;999.90;;;;;;;;;;5069758;28;20414;-73
2022/09/10 01:17:40;;;;;;;1999.90;999.90;;;;;;;;;;5073183;28;20490;-74
2022/09/10 01:20:31;;;;;;;1999.90;999.90;;;;;;;;;;5066787;28;20407;-73
2022/09/10 01:23:22;;;;;;;1999.90;999.90;;;;;;;;;;5059314;28;20399;-74
2022/09/10 01:25:57;;;;;;;1999.90;999.90;;;;;;;;;;5087664;27;20485;-73
2022/09/10 01:28:29;;;;;;;1999.90;999.90;;;;;;;;;;5065482;28;20395;-73
2022/09/10 01:31:01;;;;;;;1999.90;999.90;;;;;;;;;;5062223;28;20445;-74
2022/09/10 01:33:32;;;;;;;1999.90;999.90;;;;;;;;;;5078859;28;20419;-73
2022/09/10 01:36:01;;;;;;;1999.90;999.90;;;;;;;;;;5064233;28;20911;-74
2022/09/10 01:38:31;;;;;;;1999.90;999.90;;;;;;;;;;5068762;28;20387;-74
2022/09/10 01:41:00;;;;;;;1999.90;999.90;;;;;;;;;;5068500;28;20391;-73
2022/09/10 01:43:34;;;;;;;1999.90;999.90;;;;;;;;;;5079372;28;20382;-74
2022/09/10 01:46:11;;;;;;;1999.90;999.90;;;;;;;;;;5072794;28;20476;-72
2022/09/10 01:48:59;;;;;;;1999.90;999.90;;;;;;;;;;5069301;28;20401;-73
2022/09/10 01:51:33;;;;;;;1999.90;999.90;;;;;;;;;;5081834;27;20828;-72
2022/09/10 01:54:10;;;;;;;1999.90;999.90;;;;;;;;;;5069057;28;20422;-73
2022/09/10 01:56:40;;;;;;;1999.90;999.90;;;;;;;;;;5068382;28;20418;-72
2022/09/10 01:59:14;;;;;;;1999.90;999.90;;;;;;;;;;5070130;28;20437;-73
2022/09/10 02:01:45;;;;;;;1999.90;999.90;;;;;;;;;;5062088;28;20418;-73
2022/09/10 02:04:13;;;;;;;1999.90;999.90;;;;;;;;;;5065965;28;20405;-73
2022/09/10 02:06:44;;;;;;;1999.90;999.90;;;;;;;;;;5063388;28;20440;-72
2022/09/10 02:09:12;;;;;;;1999.90;999.90;;;;;;;;;;5069381;28;20418;-72
2022/09/10 02:11:46;;;;;;;1999.90;999.90;;;;;;;;;;5078216;28;20419;-72
2022/09/10 02:14:23;;;;;;;1999.90;999.90;;;;;;;;;;5069519;28;20421;-73
2022/09/10 02:17:12;;;;;;;1999.90;999.90;;;;;;;;;;5061660;28;20410;-72
2022/09/10 02:19:40;;;;;;;1999.90;999.90;;;;;;;;;;5076417;28;20491;-72
2022/09/10 02:22:08;;;;;;;1999.90;999.90;;;;;;;;;;5081893;27;20414;-72
2022/09/10 02:24:35;;;;;;;1999.90;999.90;;;;;;;;;;5068392;28;20413;-72
2022/09/10 02:27:06;;;;;;;1999.90;999.90;;;;;;;;;;5050229;28;20480;-73
2022/09/10 02:29:35;;;;;;;1999.90;999.90;;;;;;;;;;5065805;28;20405;-73
2022/09/10 02:32:05;;;;;;;1999.90;999.90;;;;;;;;;;5066648;28;20773;-73
2022/09/10 02:34:34;;;;;;;1999.90;999.90;;;;;;;;;;5083503;27;20400;-72
2022/09/10 02:37:02;;;;;;;1999.90;999.90;;;;;;;;;;5065066;28;20415;-73
2022/09/10 02:39:30;;;;;;;1999.90;999.90;;;;;;;;;;5064968;28;20389;-72
2022/09/10 02:41:58;;;;;;;1999.90;999.90;;;;;;;;;;5048920;28;20423;-73
2022/09/10 02:44:27;;;;;;;1999.90;999.90;;;;;;;;;;5064827;28;20398;-72
2022/09/10 02:46:57;;;;;;;1999.90;999.90;;;;;;;;;;5078668;28;20506;-73
2022/09/10 02:49:25;;;;;;;1999.90;999.90;;;;;;;;;;5064851;28;21753;-72
2022/09/10 02:51:53;;;;;;;1999.90;999.90;;;;;;;;;;5063608;28;20423;-73
2022/09/10 02:54:21;;;;;;;1999.90;999.90;;;;;;;;;;5064795;28;20401;-72
2022/09/10 02:56:49;;;;;;;1999.90;999.90;;;;;;;;;;5081810;27;20413;-72
2022/09/10 02:59:19;;;;;;;1999.90;999.90;;;;;;;;;;5069244;28;20397;-72
2022/09/10 03:01:47;;;;;;;1999.90;999.90;;;;;;;;;;5044629;28;20405;-73
2022/09/10 03:04:17;;;;;;;1999.90;999.90;;;;;;;;;;5082358;27;20369;-73
2022/09/10 03:06:48;;;;;;;1999.90;999.90;;;;;;;;;;5065648;28;20419;-73
2022/09/10 03:09:16;;;;;;;1999.90;999.90;;;;;;;;;;5064324;28;20892;-73
2022/09/10 03:11:45;;;;;;;1999.90;999.90;;;;;;;;;;5074940;28;20403;-73
2022/09/10 03:14:19;;;;;;;1999.90;999.90;;;;;;;;;;5060676;28;20488;-74
2022/09/10 03:16:47;;;;;;;1999.90;999.90;;;;;;;;;;5067265;28;20484;-73
2022/09/10 03:19:16;;;;;;;1999.90;999.90;;;;;;;;;;5078189;28;20397;-73
2022/09/10 03:21:46;;;;;;;1999.90;999.90;;;;;;;;;;5071541;28;20838;-73
2022/09/10 03:24:14;;;;;;;1999.90;999.90;;;;;;;;;;5077997;28;20417;-73
2022/09/10 03:26:44;;;;;;;1999.90;999.90;;;;;;;;;;5083864;27;20418;-74
2022/09/10 03:29:14;;;;;;;1999.90;999.90;;;;;;;;;;5049002;28;20406;-73
2022/09/10 03:31:43;;;;;;;1999.90;999.90;;;;;;;;;;5067435;28;20494;-73
2022/09/10 03:34:12;;;;;;;1999.90;999.90;;;;;;;;;;5068394;28;20489;-73
2022/09/10 03:36:42;;;;;;;1999.90;999.90;;;;;;;;;;5052477;28;20495;-73
2022/09/10 03:39:10;;;;;;;1999.90;999.90;;;;;;;;;;5065768;28;20394;-73
2022/09/10 03:41:38;;;;;;;1999.90;999.90;;;;;;;;;;5070524;28;20384;-73
2022/09/10 03:44:07;;;;;;;1999.90;999.90;;;;;;;;;;5067176;28;20426;-73
2022/09/10 03:46:36;;;;;;;1999.90;999.90;;;;;;;;;;5067859;28;20405;-74
2022/09/10 03:49:04;;;;;;;1999.90;999.90;;;;;;;;;;5061794;28;20399;-73
2022/09/10 03:51:34;;;;;;;1999.90;999.90;;;;;;;;;;5066677;28;20973;-73
2022/09/10 03:54:04;;;;;;;1999.90;999.90;;;;;;;;;;5052925;28;20518;-73
2022/09/10 03:56:33;;;;;;;1999.90;999.90;;;;;;;;;;5069956;28;20414;-73
2022/09/10 03:59:00;;;;;;;1999.90;999.90;;;;;;;;;;5082232;28;20408;-73
2022/09/10 04:01:28;;;;;;;1999.90;999.90;;;;;;;;;;5086483;27;20427;-73
2022/09/10 04:03:57;;;;;;;1999.90;999.90;;;;;;;;;;5067893;28;20347;-73
2022/09/10 04:06:27;;;;;;;1999.90;999.90;;;;;;;;;;5064144;28;20438;-73
2022/09/10 04:08:55;;;;;;;1999.90;999.90;;;;;;;;;;5085375;27;21297;-73
2022/09/10 04:11:26;;;;;;;1999.90;999.90;;;;;;;;;;5089231;27;20381;-73
2022/09/10 04:13:55;;;;;;;1999.90;999.90;;;;;;;;;;5080894;28;20406;-74
2022/09/10 04:16:24;;;;;;;1999.90;999.90;;;;;;;;;;5079642;28;20405;-73
2022/09/10 04:18:53;;;;;;;1999.90;999.90;;;;;;;;;;5082741;28;20422;-72
2022/09/10 04:21:22;;;;;;;1999.90;999.90;;;;;;;;;;5063572;28;20408;-73
2022/09/10 04:23:53;;;;;;;1999.90;999.90;;;;;;;;;;5055656;28;20389;-73
2022/09/10 04:26:21;;;;;;;1999.90;999.90;;;;;;;;;;5053736;28;20825;-73
2022/09/10 04:28:51;;;;;;;1999.90;999.90;;;;;;;;;;5063451;28;20410;-73
2022/09/10 04:31:19;;;;;;;1999.90;999.90;;;;;;;;;;5070026;28;21431;-73
2022/09/10 04:33:47;;;;;;;1999.90;999.90;;;;;;;;;;5050613;28;21031;-73
2022/09/10 04:36:19;;;;;;;1999.90;999.90;;;;;;;;;;5067048;28;20935;-74
2022/09/10 04:38:47;;;;;;;1999.90;999.90;;;;;;;;;;5071705;28;20396;-74
2022/09/10 04:41:18;;;;;;;1999.90;999.90;;;;;;;;;;5062424;28;21196;-74
2022/09/10 04:43:46;;;;;;;1999.90;999.90;;;;;;;;;;5070705;28;20467;-74
2022/09/10 04:46:16;;;;;;;1999.90;999.90;;;;;;;;;;5063248;28;20422;-74
2022/09/10 04:48:45;;;;;;;1999.90;999.90;;;;;;;;;;5069659;28;20391;-73
2022/09/10 04:51:16;;;;;;;1999.90;999.90;;;;;;;;;;5059436;28;20462;-73
2022/09/10 04:53:47;;;;;;;1999.90;999.90;;;;;;;;;;5069336;28;21007;-73
2022/09/10 04:56:15;;;;;;;1999.90;999.90;;;;;;;;;;5071860;28;20438;-74
2022/09/10 04:58:43;;;;;;;1999.90;999.90;;;;;;;;;;5088154;27;20399;-74
2022/09/10 05:01:13;;;;;;;1999.90;999.90;;;;;;;;;;5062701;28;20397;-74
2022/09/10 05:03:44;;;;;;;1999.90;999.90;;;;;;;;;;5066535;28;20447;-74
2022/09/10 05:06:12;;;;;;;1999.90;999.90;;;;;;;;;;5055843;28;20413;-74
2022/09/10 05:08:40;;;;;;;1999.90;999.90;;;;;;;;;;5064051;28;20397;-74
2022/09/10 05:11:10;;;;;;;1999.90;999.90;;;;;;;;;;5076861;28;22676;-73
2022/09/10 05:13:38;;;;;;;1999.90;999.90;;;;;;;;;;5079681;28;20390;-74
2022/09/10 05:16:06;;;;;;;1999.90;999.90;;;;;;;;;;5060141;28;21820;-74
2022/09/10 05:18:34;;;;;;;1999.90;999.90;;;;;;;;;;5076122;28;20393;-73
2022/09/10 05:21:04;;;;;;;1999.90;999.90;;;;;;;;;;5081661;27;20517;-73
2022/09/10 05:23:33;;;;;;;1999.90;999.90;;;;;;;;;;5054132;28;20389;-74
2022/09/10 05:26:01;;;;;;;1999.90;999.90;;;;;;;;;;5079298;28;20414;-74
2022/09/10 05:28:30;;;;;;;1999.90;999.90;;;;;;;;;;5065458;28;20971;-74
2022/09/10 05:30:58;;;;;;;1999.90;999.90;;;;;;;;;;5061555;28;20449;-74
2022/09/10 05:33:28;;;;;;;1999.90;999.90;;;;;;;;;;5051372;28;20388;-74
2022/09/10 05:35:55;;;;;;;1999.90;999.90;;;;;;;;;;5072198;28;20419;-74
2022/09/10 05:38:25;;;;;;;1999.90;999.90;;;;;;;;;;5063778;28;20397;-73
2022/09/10 05:40:53;;;;;;;1999.90;999.90;;;;;;;;;;5082562;27;20398;-73
2022/09/10 05:43:22;;;;;;;1999.90;999.90;;;;;;;;;;5079387;28;20405;-73
2022/09/10 05:45:51;;;;;;;1999.90;999.90;;;;;;;;;;5067817;28;20409;-73
2022/09/10 05:48:20;;;;;;;1999.90;999.90;;;;;;;;;;5077272;28;21000;-74
2022/09/10 05:50:48;;;;;;;1999.90;999.90;;;;;;;;;;5059937;28;20457;-73
2022/09/10 05:53:16;;;;;;;1999.90;999.90;;;;;;;;;;5070717;28;20902;-73
2022/09/10 05:55:46;;;;;;;1999.90;999.90;;;;;;;;;;5085512;27;20415;-74
2022/09/10 05:58:15;;;;;;;1999.90;999.90;;;;;;;;;;5077629;28;20527;-75
2022/09/10 06:00:43;;;;;;;1999.90;999.90;;;;;;;;;;5069180;28;20407;-75
2022/09/10 06:03:13;;;;;;;1999.90;999.90;;;;;;;;;;5076001;28;20391;-74
2022/09/10 06:05:49;;;;;;;1999.90;999.90;;;;;;;;;;5050957;28;20933;-75
2022/09/10 06:08:20;;;;;;;1999.90;999.90;;;;;;;;;;5077167;28;20414;-74
2022/09/10 06:10:57;;;;;;;1999.90;999.90;;;;;;;;;;5051076;28;20447;-75
2022/09/10 06:13:28;;;;;;;1999.90;999.90;;;;;;;;;;5079016;28;20439;-74
2022/09/10 06:15:56;;;;;;;1999.90;999.90;;;;;;;;;;5049421;28;20407;-74
2022/09/10 06:18:26;;;;;;;1999.90;999.90;;;;;;;;;;5053147;28;20393;-74
2022/09/10 06:21:01;;;;;;;1999.90;999.90;;;;;;;;;;5076942;28;20417;-75
2022/09/10 06:23:30;;;;;;;1999.90;999.90;;;;;;;;;;5055676;28;20394;-74
2022/09/10 06:26:07;;;;;;;1999.90;999.90;;;;;;;;;;5064953;28;22077;-74
2022/09/10 06:28:36;;;;;;;1999.90;999.90;;;;;;;;;;5062105;28;20450;-74
2022/09/10 06:31:06;;;;;;;1999.90;999.90;;;;;;;;;;5084120;27;20879;-74
2022/09/10 06:33:36;;;;;;;1999.90;999.90;;;;;;;;;;5067579;28;20390;-72
2022/09/10 06:36:05;;;;;;;1999.90;999.90;;;;;;;;;;5059559;28;20946;-72
2022/09/10 06:38:34;;;;;;;1999.90;999.90;;;;;;;;;;5049243;28;21368;-71
2022/09/10 06:41:03;;;;;;;1999.90;999.90;;;;;;;;;;5067685;28;20402;-73
2022/09/10 06:43:40;;;;;;;1999.90;999.90;;;;;;;;;;5078417;28;20398;-73
2022/09/10 06:46:18;;;;;;;1999.90;999.90;;;;;;;;;;5075798;28;20852;-73
2022/09/10 06:49:11;;;;;;;1999.90;999.90;;;;;;;;;;5067318;28;20437;-73
2022/09/10 06:51:41;;;;;;;1999.90;999.90;;;;;;;;;;5061765;28;20406;-74
2022/09/10 06:54:10;;;;;;;1999.90;999.90;;;;;;;;;;5065413;28;20476;-76
2022/09/10 06:56:38;;;;;;;1999.90;999.90;;;;;;;;;;5069363;28;20486;-74
2022/09/10 06:59:08;;;;;;;1999.90;999.90;;;;;;;;;;5071519;28;20409;-72
2022/09/10 07:01:42;;;;;;;1999.90;999.90;;;;;;;;;;5062176;28;20415;-73
2022/09/10 07:04:10;;;;;;;1999.90;999.90;;;;;;;;;;5049004;28;20406;-75
2022/09/10 07:06:40;;;;;;;1999.90;999.90;;;;;;;;;;5075136;28;20412;-72
2022/09/10 07:09:10;;;;;;;1999.90;999.90;;;;;;;;;;5076695;28;20413;-72
2022/09/10 07:11:47;;;;;;;1999.90;999.90;;;;;;;;;;5062948;28;20414;-72
2022/09/10 07:14:18;;;;;;;1999.90;999.90;;;;;;;;;;5075476;28;20394;-72
2022/09/10 07:16:49;;;;;;;1999.90;999.90;;;;;;;;;;5076269;28;20427;-72
2022/09/10 07:19:19;;;;;;;1999.90;999.90;;;;;;;;;;5058403;28;20409;-72
2022/09/10 07:21:47;;;;;;;1999.90;999.90;;;;;;;;;;5051012;28;20434;-72
2022/09/10 07:24:16;;;;;;;1999.90;999.90;;;;;;;;;;5069675;28;20469;-72
2022/09/10 07:27:19;;;;;;;1999.90;999.90;;;;;;;;;;5050417;28;20399;-72
2022/09/10 07:29:48;;;;;;;1999.90;999.90;;;;;;;;;;5065036;28;20389;-72
2022/09/10 07:32:19;;;;;;;1999.90;999.90;;;;;;;;;;5058934;28;20398;-72
2022/09/10 07:34:51;;;;;;;1999.90;999.90;;;;;;;;;;5055755;28;20381;-74
2022/09/10 07:37:21;;;;;;;1999.90;999.90;;;;;;;;;;5077003;28;20989;-73
2022/09/10 07:39:49;;;;;;;1999.90;999.90;;;;;;;;;;5078398;27;20387;-74
2022/09/10 07:42:17;;;;;;;1999.90;999.90;;;;;;;;;;5051081;28;20692;-75
2022/09/10 07:44:47;;;;;;;1999.90;999.90;;;;;;;;;;5045700;28;20395;-72
2022/09/10 07:47:15;;;;;;;1999.90;999.90;;;;;;;;;;5058625;28;21243;-71
2022/09/10 07:49:44;;;;;;;1999.90;999.90;;;;;;;;;;5058265;28;20388;-72
2022/09/10 07:52:12;;;;;;;1999.90;999.90;;;;;;;;;;5074033;28;20411;-72
2022/09/10 07:54:48;;;;;;;1999.90;999.90;;;;;;;;;;5058075;28;20484;-72
2022/09/10 07:57:16;;;;;;;1999.90;999.90;;;;;;;;;;5073198;28;20413;-72
2022/09/10 07:59:44;;;;;;;1999.90;999.90;;;;;;;;;;5069192;28;20395;-73
2022/09/10 08:02:17;;;;;;;1999.90;999.90;;;;;;;;;;5062970;28;20418;-72
2022/09/10 08:04:52;;;;;;;1999.90;999.90;;;;;;;;;;5067595;28;20426;-73
2022/09/10 08:07:20;;;;;;;1999.90;999.90;;;;;;;;;;5066616;28;20411;-72
2022/09/10 08:09:48;;;;;;;1999.90;999.90;;;;;;;;;;5066080;28;20390;-72
2022/09/10 08:12:18;;;;;;;1999.90;999.90;;;;;;;;;;5058906;28;20452;-72
2022/09/10 08:14:47;;;;;;;1999.90;999.90;;;;;;;;;;5066927;28;20399;-73
2022/09/10 08:17:17;;;;;;;1999.90;999.90;;;;;;;;;;5086299;27;20916;-72
2022/09/10 08:19:45;;;;;;;1999.90;999.90;;;;;;;;;;5060648;28;20397;-72
2022/09/10 08:22:14;;;;;;;1999.90;999.90;;;;;;;;;;5073614;28;20393;-73
2022/09/10 08:24:49;;;;;;;1999.90;999.90;;;;;;;;;;5083395;27;20448;-73
2022/09/10 08:27:17;;;;;;;1999.90;999.90;;;;;;;;;;5075305;28;20428;-73
2022/09/10 08:29:47;;;;;;;1999.90;999.90;;;;;;;;;;5061175;28;20401;-74
2022/09/10 08:32:15;;;;;;;1999.90;999.90;;;;;;;;;;5062439;28;20405;-72
2022/09/10 08:34:44;;;;;;;1999.90;999.90;;;;;;;;;;5046783;28;21676;-74
2022/09/10 08:37:12;;;;;;;1999.90;999.90;;;;;;;;;;5047962;28;20408;-73
2022/09/10 08:39:40;;;;;;;1999.90;999.90;;;;;;;;;;5053329;28;20394;-73
2022/09/10 08:42:13;;;;;;;1999.90;999.90;;;;;;;;;;5054405;28;20391;-72
2022/09/10 08:44:48;;;;;;;1999.90;999.90;;;;;;;;;;5077666;28;20580;-75
2022/09/10 08:47:22;;;;;;;1999.90;999.90;;;;;;;;;;5058184;28;20407;-73
2022/09/10 08:49:54;;;;;;;1999.90;999.90;;;;;;;;;;5048574;28;20409;-76
2022/09/10 08:52:26;;;;;;;1999.90;999.90;;;;;;;;;;5064361;28;20503;-74
2022/09/10 08:54:57;;;;;;;1999.90;999.90;;;;;;;;;;5063097;28;20415;-69
2022/09/10 08:57:28;;;;;;;1999.90;999.90;;;;;;;;;;5070272;28;20514;-73
2022/09/10 08:59:56;;;;;;;1999.90;999.90;;;;;;;;;;5051030;28;20465;-73
2022/09/10 09:02:30;;;;;;;1999.90;999.90;;;;;;;;;;5079606;28;20436;-73
2022/09/10 09:05:18;;;;;;;1999.90;999.90;;;;;;;;;;5078333;28;20407;-72
2022/09/10 09:07:50;;;;;;;1999.90;999.90;;;;;;;;;;5071166;28;20444;-73
2022/09/10 09:10:27;;;;;;;1999.90;999.90;;;;;;;;;;5050410;28;20969;-76
2022/09/10 09:13:09;;;;;;;1999.90;999.90;;;;;;;;;;5066375;28;21852;-74
2022/09/10 09:15:43;;;;;;;1999.90;999.90;;;;;;;;;;5076284;28;20398;-75
2022/09/10 09:18:17;;;;;;;1999.90;999.90;;;;;;;;;;5052266;28;20414;-73
2022/09/10 09:20:48;;;;;;;1999.90;999.90;;;;;;;;;;5066691;28;20417;-75
2022/09/10 09:23:20;;;;;;;1999.90;999.90;;;;;;;;;;5066236;28;20536;-75
2022/09/10 09:25:49;;;;;;;1999.90;999.90;;;;;;;;;;5066994;28;20418;-76
2022/09/10 09:28:21;;;;;;;1999.90;999.90;;;;;;;;;;5067558;28;20460;-74
2022/09/10 09:30:52;;;;;;;1999.90;999.90;;;;;;;;;;5076303;28;20382;-76
2022/09/10 09:33:22;;;;;;;1999.90;999.90;;;;;;;;;;5050136;28;21776;-76
2022/09/10 09:35:56;;;;;;;1999.90;999.90;;;;;;;;;;5062770;28;20411;-76
2022/09/10 09:38:25;;;;;;;1999.90;999.90;;;;;;;;;;5045969;28;20805;-75
2022/09/10 09:40:57;;;;;;;1999.90;999.90;;;;;;;;;;5061038;28;20874;-74
2022/09/10 09:43:32;;;;;;;1999.90;999.90;;;;;;;;;;5041007;28;20419;-75
2022/09/10 09:46:01;;;;;;;1999.90;999.90;;;;;;;;;;5052343;28;20817;-75
2022/09/10 09:48:35;;;;;;;1999.90;999.90;;;;;;;;;;5058091;28;21223;-76
2022/09/10 09:51:04;;;;;;;1999.90;999.90;;;;;;;;;;5061331;28;20401;-74
2022/09/10 09:53:32;;;;;;;1999.90;999.90;;;;;;;;;;5063128;28;20391;-73
2022/09/10 09:56:01;;;;;;;1999.90;999.90;;;;;;;;;;5065551;28;20415;-74
2022/09/10 09:58:30;;;;;;;1999.90;999.90;;;;;;;;;;5065620;28;20417;-74
2022/09/10 10:01:12;;;;;;;1999.90;999.90;;;;;;;;;;5062468;28;20411;-73
2022/09/10 10:03:47;;;;;;;1999.90;999.90;;;;;;;;;;5068501;28;20403;-74
2022/09/10 10:06:18;;;;;;;1999.90;999.90;;;;;;;;;;5073513;28;20411;-74
2022/09/10 10:08:52;;;;;;;1999.90;999.90;;;;;;;;;;5068985;28;20496;-74
2022/09/10 10:11:21;;;;;;;1999.90;999.90;;;;;;;;;;5070159;28;20855;-75
2022/09/10 10:13:50;;;;;;;1999.90;999.90;;;;;;;;;;5083646;27;20398;-74
2022/09/10 10:16:21;;;;;;;1999.90;999.90;;;;;;;;;;5067555;28;20407;-73
2022/09/10 10:18:49;;;;;;;1999.90;999.90;;;;;;;;;;5046270;28;20822;-73
2022/09/10 10:21:20;;;;;;;1999.90;999.90;;;;;;;;;;5061479;28;20396;-73
2022/09/10 10:23:48;;;;;;;1999.90;999.90;;;;;;;;;;5066572;28;20400;-74
2022/09/10 10:26:17;;;;;;;1999.90;999.90;;;;;;;;;;5068215;28;20387;-74
2022/09/10 10:28:46;;;;;;;1999.90;999.90;;;;;;;;;;5066958;28;20406;-75
2022/09/10 10:31:14;;;;;;;1999.90;999.90;;;;;;;;;;5068481;28;20518;-74
2022/09/10 10:33:47;;;;;;;1999.90;999.90;;;;;;;;;;5061691;28;20398;-73
2022/09/10 10:36:18;;;;;;;1999.90;999.90;;;;;;;;;;5065773;28;20381;-75
2022/09/10 10:38:54;;;;;;;1999.90;999.90;;;;;;;;;;5070902;27;20504;-75
2022/09/10 10:41:49;;;;;;;1999.90;999.90;;;;;;;;;;5065882;28;20389;-74
2022/09/10 10:44:23;;;;;;;1999.90;999.90;;;;;;;;;;5033818;28;21612;-73
2022/09/10 10:46:58;;;;;;;1999.90;999.90;;;;;;;;;;5073255;28;20398;-76
2022/09/10 10:49:30;;;;;;;1999.90;999.90;;;;;;;;;;5067773;28;22129;-75
2022/09/10 10:52:03;;;;;;;1999.90;999.90;;;;;;;;;;5067646;28;20413;-75
2022/09/10 10:54:39;;;;;;;1999.90;999.90;;;;;;;;;;5077294;27;20426;-76
2022/09/10 10:57:11;;;;;;;1999.90;999.90;;;;;;;;;;5064736;28;21143;-75
2022/09/10 10:59:45;;;;;;;1999.90;999.90;;;;;;;;;;5065807;28;20404;-76
2022/09/10 11:02:14;;;;;;;1999.90;999.90;;;;;;;;;;5073162;28;21341;-75
2022/09/10 11:04:49;;;;;;;1999.90;999.90;;;;;;;;;;5065511;28;20385;-75
2022/09/10 11:07:20;;;;;;;1999.90;999.90;;;;;;;;;;5066872;28;20877;-75
2022/09/10 11:09:51;;;;;;;1999.90;999.90;;;;;;;;;;5066192;28;20403;-76
2022/09/10 11:12:24;;;;;;;1999.90;999.90;;;;;;;;;;5067287;28;20379;-75
2022/09/10 11:14:55;;;;;;;1999.90;999.90;;;;;;;;;;5068680;28;20398;-75
2022/09/10 11:17:26;;;;;;;1999.90;999.90;;;;;;;;;;5075580;28;20411;-75
2022/09/10 11:20:00;;;;;;;1999.90;999.90;;;;;;;;;;5076136;27;20455;-75
2022/09/10 11:22:58;;;;;;;1999.90;999.90;;;;;;;;;;5073769;28;20400;-75
2022/09/10 11:25:28;;;;;;;1999.90;999.90;;;;;;;;;;5056505;28;20390;-76
2022/09/10 11:27:58;;;;;;;1999.90;999.90;;;;;;;;;;5066809;28;20446;-76
2022/09/10 11:30:26;;;;;;;1999.90;999.90;;;;;;;;;;5065605;28;20479;-76
2022/09/10 11:32:57;;;;;;;1999.90;999.90;;;;;;;;;;5073519;28;20552;-76
2022/09/10 11:35:27;;;;;;;1999.90;999.90;;;;;;;;;;5062938;28;20426;-76
2022/09/10 11:38:00;;;;;;;1999.90;999.90;;;;;;;;;;5070514;28;20413;-76
2022/09/10 11:40:34;;;;;;;1999.90;999.90;;;;;;;;;;5062070;28;20484;-76
2022/09/10 11:43:06;;;;;;;1999.90;999.90;;;;;;;;;;5059951;28;20501;-76
2022/09/10 11:45:40;;;;;;;1999.90;999.90;;;;;;;;;;5057110;28;20482;-76
2022/09/10 11:48:11;;;;;;;1999.90;999.90;;;;;;;;;;5066120;28;20419;-76
2022/09/10 11:50:41;;;;;;;1999.90;999.90;;;;;;;;;;5065955;28;20947;-74
2022/09/10 11:53:12;;;;;;;1999.90;999.90;;;;;;;;;;5066148;28;20412;-75
2022/09/10 11:55:48;;;;;;;1999.90;999.90;;;;;;;;;;5067127;28;21217;-75
2022/09/10 11:58:18;;;;;;;1999.90;999.90;;;;;;;;;;5065140;28;21009;-75
2022/09/10 12:00:51;;;;;;;1999.90;999.90;;;;;;;;;;5071643;27;20414;-74
2022/09/10 12:03:31;;;;;;;1999.90;999.90;;;;;;;;;;5062437;28;20405;-74
2022/09/10 12:06:06;;;;;;;1999.90;999.90;;;;;;;;;;5060580;28;20418;-75
2022/09/10 12:08:40;;;;;;;1999.90;999.90;;;;;;;;;;5068009;28;20391;-75
2022/09/10 12:11:13;;;;;;;1999.90;999.90;;;;;;;;;;5066642;28;20410;-75
2022/09/10 12:13:44;;;;;;;1999.90;999.90;;;;;;;;;;5060538;28;20390;-75
2022/09/10 12:16:17;;;;;;;1999.90;999.90;;;;;;;;;;5061840;28;20410;-76
2022/09/10 12:18:47;;;;;;;1999.90;999.90;;;;;;;;;;5073205;28;20405;-75
2022/09/10 12:21:20;;;;;;;1999.90;999.90;;;;;;;;;;5065303;28;20600;-75
2022/09/10 12:23:48;;;;;;;1999.90;999.90;;;;;;;;;;5062582;28;20393;-75
2022/09/10 12:26:20;;;;;;;1999.90;999.90;;;;;;;;;;5055440;28;20949;-76
2022/09/10 12:28:59;;;;;;;1999.90;999.90;;;;;;;;;;5067297;28;20430;-77
2022/09/10 12:31:27;;;;;;;1999.90;999.90;;;;;;;;;;5062040;28;20905;-76
2022/09/10 12:34:11;;;;;;;1999.90;999.90;;;;;;;;;;5059202;28;20391;-75
2022/09/10 12:36:57;;;;;;;1999.90;999.90;;;;;;;;;;5060243;27;20421;-76
2022/09/10 12:39:26;;;;;;;1999.90;999.90;;;;;;;;;;5062643;28;20508;-76
2022/09/10 12:41:56;;;;;;;1999.90;999.90;;;;;;;;;;5056650;28;20409;-74
2022/09/10 12:44:43;;;;;;;1999.90;999.90;;;;;;;;;;5062087;28;20419;-75
2022/09/10 12:47:39;;;;;;;1999.90;999.90;;;;;;;;;;5064255;28;20453;-75
2022/09/10 12:50:16;;;;;;;1999.90;999.90;;;;;;;;;;5066643;28;20411;-76
2022/09/10 12:52:49;;;;;;;1999.90;999.90;;;;;;;;;;5067683;28;20477;-76
2022/09/10 12:55:21;;;;;;;1999.90;999.90;;;;;;;;;;5068470;28;20458;-76
2022/09/10 12:57:54;;;;;;;1999.90;999.90;;;;;;;;;;5086826;27;20414;-76
2022/09/10 13:00:22;;;;;;;1999.90;999.90;;;;;;;;;;5066052;28;20385;-76
2022/09/10 13:02:52;;;;;;;1999.90;999.90;;;;;;;;;;5070008;28;20426;-77
2022/09/10 13:05:25;;;;;;;1999.90;999.90;;;;;;;;;;5068295;28;20422;-76
2022/09/10 13:07:58;;;;;;;1999.90;999.90;;;;;;;;;;5086127;27;20419;-76
2022/09/10 13:10:27;;;;;;;1999.90;999.90;;;;;;;;;;5075518;28;20406;-76
2022/09/10 13:12:58;;;;;;;1999.90;999.90;;;;;;;;;;5061971;28;20379;-76
2022/09/10 13:15:28;;;;;;;1999.90;999.90;;;;;;;;;;5067058;28;20918;-76
2022/09/10 13:18:21;;;;;;;1999.90;999.90;;;;;;;;;;5067121;28;20811;-76
2022/09/10 13:20:49;;;;;;;1999.90;999.90;;;;;;;;;;5070700;28;20450;-76
2022/09/10 13:23:21;;;;;;;1999.90;999.90;;;;;;;;;;5067992;28;20517;-76
2022/09/10 13:25:49;;;;;;;1999.90;999.90;;;;;;;;;;5069869;28;20379;-76
2022/09/10 13:28:36;;;;;;;1999.90;999.90;;;;;;;;;;5073452;28;20428;-76
2022/09/10 13:31:10;;;;;;;1999.90;999.90;;;;;;;;;;5070657;28;20443;-76
2022/09/10 13:33:43;;;;;;;1999.90;999.90;;;;;;;;;;5066140;28;20447;-77
2022/09/10 13:36:15;;;;;;;1999.90;999.90;;;;;;;;;;5077868;28;20877;-76
2022/09/10 13:38:53;;;;;;;1999.90;999.90;;;;;;;;;;5066943;28;20441;-76
2022/09/10 13:41:28;;;;;;;1999.90;999.90;;;;;;;;;;5073240;28;20419;-75
2022/09/10 13:44:04;;;;;;;1999.90;999.90;;;;;;;;;;5066139;28;20399;-76
2022/09/10 13:46:35;;;;;;;1999.90;999.90;;;;;;;;;;5066976;28;20496;-77
2022/09/10 13:49:06;;;;;;;1999.90;999.90;;;;;;;;;;5053283;28;20501;-77
2022/09/10 13:51:36;;;;;;;1999.90;999.90;;;;;;;;;;5067500;28;20893;-76
2022/09/10 13:54:07;;;;;;;1999.90;999.90;;;;;;;;;;5067982;28;20451;-77
2022/09/10 13:56:35;;;;;;;1999.90;999.90;;;;;;;;;;5068626;28;22290;-77
2022/09/10 13:59:04;;;;;;;1999.90;999.90;;;;;;;;;;5068270;22;20977;-75
2022/09/10 14:01:49;;;;;;;1999.90;999.90;;;;;;;;;;5037258;28;20490;-74
2022/09/10 14:04:21;;;;;;;1999.90;999.90;;;;;;;;;;5042267;28;20513;-76